Time;durP1;ratioP1;P1;durP2;ratioP2;P2;SDS_P1;SDS_P2;PMS_P1;PMS_P2;Temp;Humidity;BMP_temperature;BMP_pressure;BME280_temperature;BME280_humidity;BME280_pressure;Samples;Min_cycle;Max_cycle;Signal;HPM_P1;HPM_P2
2023/02/11 00:00:34;;;;;;;22.52;9.55;;;7.00;99.90;;;;;;5050493;28;20021;-70
2023/02/11 00:02:59;;;;;;;24.00;9.05;;;7.00;99.90;;;;;;5048771;28;20036;-69
2023/02/11 00:05:25;;;;;;;13.80;7.22;;;7.00;99.90;;;;;;5040646;28;20040;-70
2023/02/11 00:07:50;;;;;;;18.98;7.97;;;7.00;99.90;;;;;;5047446;28;20509;-69
2023/02/11 00:10:19;;;;;;;22.23;8.05;;;7.00;99.90;;;;;;5038278;28;20392;-69
2023/02/11 00:12:44;;;;;;;18.27;7.22;;;7.00;99.90;;;;;;5034285;28;20024;-69
2023/02/11 00:15:10;;;;;;;17.42;7.10;;;6.90;99.90;;;;;;5039250;28;20025;-70
2023/02/11 00:17:35;;;;;;;17.25;7.25;;;6.90;99.90;;;;;;5052649;28;20095;-70
2023/02/11 00:20:01;;;;;;;14.52;7.38;;;6.90;99.90;;;;;;5035248;28;20033;-70
2023/02/11 00:22:26;;;;;;;14.50;7.13;;;6.90;99.90;;;;;;5035440;28;20079;-70
2023/02/11 00:24:52;;;;;;;16.52;7.35;;;6.90;99.90;;;;;;5043603;28;20036;-69
2023/02/11 00:27:18;;;;;;;27.85;7.47;;;6.90;99.90;;;;;;5037169;28;20100;-70
2023/02/11 00:29:43;;;;;;;17.23;6.82;;;7.00;99.90;;;;;;5038361;28;20029;-70
2023/02/11 00:32:10;;;;;;;15.20;6.40;;;6.90;99.90;;;;;;5035837;28;20373;-70
2023/02/11 00:34:37;;;;;;;15.88;6.35;;;6.90;99.90;;;;;;5035337;28;20500;-70
2023/02/11 00:37:03;;;;;;;18.02;6.97;;;6.90;99.90;;;;;;5035627;28;20025;-70
2023/02/11 00:39:29;;;;;;;18.38;7.13;;;6.90;99.90;;;;;;5035297;28;20430;-70
2023/02/11 00:41:54;;;;;;;16.75;6.80;;;6.90;99.90;;;;;;5039823;28;20029;-70
2023/02/11 00:44:20;;;;;;;17.58;6.15;;;6.90;99.90;;;;;;5035105;28;20025;-70
2023/02/11 00:46:45;;;;;;;19.00;6.55;;;6.90;99.90;;;;;;5047178;28;20154;-69
2023/02/11 00:49:11;;;;;;;13.50;5.72;;;6.90;99.90;;;;;;5041708;28;20017;-70
2023/02/11 00:51:36;;;;;;;15.50;5.40;;;6.90;99.90;;;;;;5033917;28;20025;-70
2023/02/11 00:54:02;;;;;;;17.48;5.78;;;6.90;99.90;;;;;;5034339;28;20094;-69
2023/02/11 00:56:28;;;;;;;16.65;6.75;;;6.90;99.90;;;;;;5040748;28;20040;-70
2023/02/11 00:58:53;;;;;;;13.13;5.38;;;6.90;99.90;;;;;;5040250;28;20167;-69
2023/02/11 01:01:20;;;;;;;14.77;5.97;;;6.90;99.90;;;;;;5034150;28;20108;-69
2023/02/11 01:03:46;;;;;;;21.38;6.35;;;6.90;99.90;;;;;;5047585;28;20027;-70
2023/02/11 01:06:11;;;;;;;17.10;6.55;;;6.90;99.90;;;;;;5041571;28;20489;-70
2023/02/11 01:08:38;;;;;;;26.50;6.95;;;6.90;99.90;;;;;;5035899;28;20021;-69
2023/02/11 01:11:09;;;;;;;16.75;5.00;;;6.80;99.90;;;;;;5035819;28;20033;-70
2023/02/11 01:13:36;;;;;;;19.60;6.32;;;6.90;99.90;;;;;;5035404;28;20096;-69
2023/02/11 01:16:02;;;;;;;20.02;6.15;;;6.90;99.90;;;;;;5037991;28;20033;-70
2023/02/11 01:18:28;;;;;;;18.48;6.00;;;6.90;99.90;;;;;;5040178;28;20033;-70
2023/02/11 01:20:54;;;;;;;19.08;5.93;;;6.90;99.90;;;;;;5033103;28;20370;-70
2023/02/11 01:23:20;;;;;;;14.13;5.13;;;6.90;99.90;;;;;;5042470;28;20108;-70
2023/02/11 01:25:46;;;;;;;19.10;5.20;;;6.90;99.90;;;;;;5035308;28;20160;-70
2023/02/11 01:28:18;;;;;;;15.30;5.38;;;6.90;99.90;;;;;;5039291;28;20037;-70
2023/02/11 01:30:43;;;;;;;11.48;4.70;;;6.80;99.90;;;;;;5051607;28;20067;-69
2023/02/11 01:33:09;;;;;;;14.45;5.30;;;6.90;99.90;;;;;;5047660;28;20045;-70
2023/02/11 01:35:34;;;;;;;18.35;4.32;;;6.80;99.90;;;;;;5042221;28;20082;-70
2023/02/11 01:38:00;;;;;;;18.42;5.13;;;6.80;99.90;;;;;;5039066;28;20063;-70
2023/02/11 01:40:25;;;;;;;11.93;5.03;;;6.80;99.90;;;;;;5033887;28;20072;-70
2023/02/11 01:42:51;;;;;;;13.93;4.15;;;6.80;99.90;;;;;;5042573;28;20029;-70
2023/02/11 01:45:47;;;;;;;16.63;4.97;;;6.80;99.90;;;;;;5037674;28;20048;-70
2023/02/11 01:48:21;;;;;;;11.10;4.00;;;6.80;99.90;;;;;;5045153;28;20032;-70
2023/02/11 01:50:52;;;;;;;15.60;4.97;;;6.80;99.90;;;;;;5036723;28;20040;-70
2023/02/11 01:58:52;;;;;;;17.60;3.95;;;6.90;99.90;;;;;;5046549;28;20104;-70
2023/02/11 02:01:23;;;;;;;19.65;4.70;;;6.90;99.90;;;;;;5038985;28;20060;-70
2023/02/11 02:03:53;;;;;;;15.85;4.47;;;6.90;99.90;;;;;;5035072;28;20038;-70
2023/02/11 02:06:59;;;;;;;20.80;4.50;;;6.90;99.90;;;;;;5032186;28;20128;-70
2023/02/11 02:09:29;;;;;;;29.38;5.72;;;6.90;99.90;;;;;;5037137;28;20176;-70
2023/02/11 02:11:54;;;;;;;18.60;3.63;;;6.80;99.90;;;;;;5035245;28;20370;-70
2023/02/11 02:14:20;;;;;;;11.40;4.00;;;6.90;99.90;;;;;;5037515;28;20111;-70
2023/02/11 02:16:46;;;;;;;17.00;4.88;;;6.90;99.90;;;;;;5032253;28;20469;-69
2023/02/11 02:19:49;;;;;;;15.93;4.00;;;6.90;99.90;;;;;;5034640;28;20039;-70
2023/02/11 02:22:36;;;;;;;15.85;4.78;;;6.80;99.90;;;;;;5050011;28;20025;-70
2023/02/11 02:25:49;;;;;;;14.75;3.85;;;6.80;99.90;;;;;;5035067;28;20040;-70
2023/02/11 02:28:35;;;;;;;16.60;4.40;;;6.80;99.90;;;;;;5030412;28;20046;-70
2023/02/11 02:31:52;;;;;;;21.63;4.60;;;6.80;99.90;;;;;;5039899;28;20094;-70
2023/02/11 02:34:51;;;;;;;17.63;4.45;;;6.80;99.90;;;;;;5024023;28;20033;-70
2023/02/11 02:37:25;;;;;;;15.43;4.55;;;6.70;99.90;;;;;;5031442;28;20029;-70
2023/02/11 02:39:51;;;;;;;17.63;4.63;;;6.70;99.90;;;;;;5036304;28;20025;-70
2023/02/11 02:42:18;;;;;;;12.95;3.90;;;6.60;99.90;;;;;;5036021;28;20481;-70
2023/02/11 02:44:49;;;;;;;15.07;4.25;;;6.60;99.90;;;;;;5046514;28;20047;-70
2023/02/11 02:47:16;;;;;;;20.95;4.95;;;6.60;99.90;;;;;;5050172;28;20059;-70
2023/02/11 02:49:41;;;;;;;18.17;4.40;;;6.60;99.90;;;;;;5040805;28;20120;-70
2023/02/11 02:52:33;;;;;;;16.63;5.47;;;6.60;99.90;;;;;;5032133;28;20029;-70
2023/02/11 02:55:07;;;;;;;18.45;4.82;;;6.60;99.90;;;;;;5030321;28;20118;-70
2023/02/11 02:57:52;;;;;;;15.25;5.20;;;6.60;99.90;;;;;;5047872;28;20036;-70
2023/02/11 03:00:35;;;;;;;17.27;5.40;;;6.60;99.90;;;;;;5031888;28;20063;-70
2023/02/11 03:03:09;;;;;;;19.38;4.82;;;6.50;99.90;;;;;;5044758;28;20056;-70
2023/02/11 03:05:46;;;;;;;13.20;4.88;;;6.50;99.90;;;;;;5042242;28;20392;-70
2023/02/11 03:08:34;;;;;;;16.10;4.57;;;6.40;99.90;;;;;;5031007;28;20029;-70
2023/02/11 03:11:02;;;;;;;20.30;5.50;;;6.40;99.90;;;;;;5038403;28;20032;-70
2023/02/11 03:13:32;;;;;;;19.17;6.20;;;6.40;99.90;;;;;;5045657;28;20481;-70
2023/02/11 03:16:10;;;;;;;21.67;5.90;;;6.40;99.90;;;;;;5031087;28;20029;-70
2023/02/11 03:18:39;;;;;;;18.27;5.50;;;6.40;99.90;;;;;;5032569;28;20498;-70
2023/02/11 03:21:07;;;;;;;20.15;5.78;;;6.40;99.90;;;;;;5047132;28;20375;-69
2023/02/11 03:23:46;;;;;;;14.80;4.88;;;6.40;99.90;;;;;;5050222;28;20159;-69
2023/02/11 03:26:27;;;;;;;16.70;5.30;;;6.40;99.90;;;;;;5032048;28;20088;-70
2023/02/11 03:29:10;;;;;;;17.23;6.00;;;6.40;99.90;;;;;;5035214;28;20078;-70
2023/02/11 03:31:57;;;;;;;20.65;5.60;;;6.40;99.90;;;;;;5036789;28;20104;-69
2023/02/11 03:34:41;;;;;;;16.98;5.90;;;6.40;99.90;;;;;;5031337;28;20163;-70
2023/02/11 03:37:20;;;;;;;17.73;6.40;;;6.50;99.90;;;;;;5031454;28;20022;-70
2023/02/11 03:39:58;;;;;;;19.48;6.82;;;6.40;99.90;;;;;;5040841;28;20028;-70
2023/02/11 03:42:29;;;;;;;16.02;5.53;;;6.40;99.90;;;;;;5046743;28;20108;-70
2023/02/11 03:45:06;;;;;;;18.73;6.70;;;6.40;99.90;;;;;;5044762;28;20439;-70
2023/02/11 03:47:35;;;;;;;20.15;6.28;;;6.30;99.90;;;;;;5030737;28;20060;-70
2023/02/11 03:50:05;;;;;;;13.85;6.75;;;6.30;99.90;;;;;;5038247;28;20029;-69
2023/02/11 03:52:31;;;;;;;17.95;7.05;;;6.30;99.90;;;;;;5046821;28;20096;-69
2023/02/11 03:55:00;;;;;;;17.23;6.55;;;6.30;99.90;;;;;;5046063;28;20082;-70
2023/02/11 03:57:26;;;;;;;16.73;6.68;;;6.30;99.90;;;;;;5041824;28;20385;-70
2023/02/11 03:59:57;;;;;;;19.17;7.28;;;6.30;99.90;;;;;;5040113;28;20030;-70
2023/02/11 04:02:27;;;;;;;18.20;6.72;;;6.30;99.90;;;;;;5037884;28;20037;-69
2023/02/11 04:04:52;;;;;;;26.90;8.07;;;6.40;99.90;;;;;;5042143;28;20468;-69
2023/02/11 04:07:18;;;;;;;20.50;7.72;;;6.40;99.90;;;;;;5037300;28;20108;-70
2023/02/11 04:09:43;;;;;;;24.80;8.50;;;6.40;99.90;;;;;;5036938;28;20022;-69
2023/02/11 04:12:09;;;;;;;22.48;8.00;;;6.50;99.90;;;;;;5036780;28;20388;-70
2023/02/11 04:14:35;;;;;;;26.27;8.40;;;6.50;99.90;;;;;;5038383;28;20029;-70
2023/02/11 04:17:00;;;;;;;21.75;8.25;;;6.50;99.90;;;;;;5040806;28;20513;-70
2023/02/11 04:19:26;;;;;;;28.77;8.82;;;6.50;99.90;;;;;;5043575;28;20033;-70
2023/02/11 04:21:51;;;;;;;24.15;8.70;;;6.50;99.90;;;;;;5037796;28;20099;-70
2023/02/11 04:24:17;;;;;;;23.58;8.73;;;6.50;99.90;;;;;;5036381;28;20021;-69
2023/02/11 04:26:42;;;;;;;27.67;8.40;;;6.60;99.90;;;;;;5034215;28;20404;-70
2023/02/11 04:29:08;;;;;;;23.35;8.40;;;6.50;99.90;;;;;;5038727;28;20021;-70
2023/02/11 04:31:33;;;;;;;21.85;8.93;;;6.60;99.90;;;;;;5035338;28;20131;-70
2023/02/11 04:33:59;;;;;;;24.65;9.98;;;6.60;99.90;;;;;;5035617;28;20035;-70
2023/02/11 04:36:24;;;;;;;20.85;9.45;;;6.60;99.90;;;;;;5033485;28;20035;-69
2023/02/11 04:38:50;;;;;;;19.88;9.05;;;6.60;99.90;;;;;;5039702;28;20108;-70
2023/02/11 04:41:15;;;;;;;25.15;9.80;;;6.60;99.90;;;;;;5033664;28;20038;-70
2023/02/11 04:43:48;;;;;;;32.28;9.98;;;6.60;99.90;;;;;;5034558;28;20029;-70
2023/02/11 04:46:14;;;;;;;27.27;10.52;;;6.60;99.90;;;;;;5037678;28;20405;-69
2023/02/11 04:48:45;;;;;;;24.42;10.05;;;6.70;99.90;;;;;;5034914;28;20033;-70
2023/02/11 04:51:16;;;;;;;21.52;9.10;;;6.70;99.90;;;;;;5039888;28;20100;-70
2023/02/11 04:53:49;;;;;;;25.02;10.88;;;6.70;99.90;;;;;;5033443;28;20021;-70
2023/02/11 04:56:14;;;;;;;24.88;10.45;;;6.70;99.90;;;;;;5046554;28;20037;-70
2023/02/11 04:58:40;;;;;;;24.70;10.35;;;6.70;99.90;;;;;;5035047;28;20030;-70
2023/02/11 05:01:10;;;;;;;31.42;11.18;;;6.70;99.90;;;;;;5036691;28;20045;-70
2023/02/11 05:03:38;;;;;;;23.95;10.90;;;6.70;99.90;;;;;;5037320;28;20123;-70
2023/02/11 05:06:05;;;;;;;28.05;11.75;;;6.70;99.90;;;;;;5037251;28;20052;-70
2023/02/11 05:08:31;;;;;;;27.35;11.93;;;6.80;99.90;;;;;;5035594;28;20033;-69
2023/02/11 05:10:56;;;;;;;24.60;11.02;;;6.80;99.90;;;;;;5029472;28;20035;-70
2023/02/11 05:13:28;;;;;;;27.33;10.60;;;6.70;99.90;;;;;;5032001;28;20112;-70
2023/02/11 05:15:54;;;;;;;26.20;10.52;;;6.80;99.90;;;;;;5024262;28;20084;-70
2023/02/11 05:18:20;;;;;;;20.55;10.27;;;6.80;99.90;;;;;;5047019;28;20025;-70
2023/02/11 05:20:45;;;;;;;29.83;11.75;;;6.80;99.90;;;;;;5032805;28;20087;-70
2023/02/11 05:23:11;;;;;;;29.73;11.52;;;6.80;99.90;;;;;;5032246;28;20040;-70
2023/02/11 05:25:37;;;;;;;22.67;10.82;;;6.80;99.90;;;;;;5037172;28;20029;-70
2023/02/11 05:28:04;;;;;;;28.30;11.55;;;6.70;99.90;;;;;;5043370;28;20031;-70
2023/02/11 05:30:29;;;;;;;28.00;12.15;;;6.70;99.90;;;;;;5052359;28;20041;-70
2023/02/11 05:32:56;;;;;;;30.67;12.20;;;6.70;99.90;;;;;;5041589;28;20037;-69
2023/02/11 05:35:21;;;;;;;28.73;12.15;;;6.70;99.90;;;;;;5033430;28;20025;-69
2023/02/11 05:37:47;;;;;;;32.22;12.07;;;6.70;99.90;;;;;;5033116;28;20013;-70
2023/02/11 05:40:12;;;;;;;26.30;11.85;;;6.70;99.90;;;;;;5038738;28;20035;-70
2023/02/11 05:42:38;;;;;;;33.88;13.57;;;6.70;99.90;;;;;;5049199;28;20028;-69
2023/02/11 05:45:04;;;;;;;24.83;12.10;;;6.70;99.90;;;;;;5031751;28;20537;-70
2023/02/11 05:47:30;;;;;;;27.17;12.68;;;6.70;99.90;;;;;;5031539;28;20393;-70
2023/02/11 05:49:55;;;;;;;28.33;13.65;;;6.70;99.90;;;;;;5032645;28;20083;-69
2023/02/11 05:52:22;;;;;;;29.27;13.63;;;6.60;99.90;;;;;;5036790;28;20026;-70
2023/02/11 05:54:48;;;;;;;23.38;12.20;;;6.70;99.90;;;;;;5031941;28;20029;-70
2023/02/11 05:57:14;;;;;;;26.67;12.43;;;6.70;99.90;;;;;;5031231;28;20095;-69
2023/02/11 05:59:40;;;;;;;28.25;12.85;;;6.60;99.90;;;;;;5042559;28;20068;-70
2023/02/11 06:02:09;;;;;;;23.05;11.95;;;6.60;99.90;;;;;;5031904;28;20032;-70
2023/02/11 06:04:36;;;;;;;26.55;12.98;;;6.60;99.90;;;;;;5034450;28;20372;-70
2023/02/11 06:07:02;;;;;;;32.05;14.18;;;6.70;99.90;;;;;;5036601;28;20038;-69
2023/02/11 06:09:27;;;;;;;27.38;12.93;;;6.60;99.90;;;;;;5045274;28;20027;-70
2023/02/11 06:11:53;;;;;;;25.52;13.43;;;6.60;99.90;;;;;;5044762;28;20119;-70
2023/02/11 06:14:19;;;;;;;29.23;13.50;;;6.70;99.90;;;;;;5039757;28;20072;-70
2023/02/11 06:16:44;;;;;;;27.60;13.02;;;6.70;99.90;;;;;;5035163;28;20033;-69
2023/02/11 06:19:11;;;;;;;32.03;14.27;;;6.70;99.90;;;;;;5037569;28;20091;-70
2023/02/11 06:21:38;;;;;;;29.35;13.93;;;6.70;99.90;;;;;;5032341;28;20495;-70
2023/02/11 06:24:04;;;;;;;35.03;14.52;;;6.70;99.90;;;;;;5042910;28;20021;-69
2023/02/11 06:26:30;;;;;;;28.40;13.63;;;6.70;99.90;;;;;;5039068;28;20480;-70
2023/02/11 06:28:58;;;;;;;27.25;14.07;;;6.70;99.90;;;;;;5032067;28;20044;-70
2023/02/11 06:31:23;;;;;;;34.38;14.85;;;6.70;99.90;;;;;;5040625;28;20500;-70
2023/02/11 06:33:49;;;;;;;40.30;16.00;;;6.70;99.90;;;;;;5037125;28;20021;-69
2023/02/11 06:36:17;;;;;;;32.85;15.93;;;6.70;99.90;;;;;;5032875;28;20190;-70
2023/02/11 06:38:43;;;;;;;27.90;13.68;;;6.70;99.90;;;;;;5036564;28;20026;-69
2023/02/11 06:41:10;;;;;;;35.65;15.30;;;6.70;99.90;;;;;;5040571;28;20028;-70
2023/02/11 06:43:35;;;;;;;37.15;15.82;;;6.70;99.90;;;;;;5030805;28;20017;-70
2023/02/11 06:46:01;;;;;;;37.13;16.27;;;6.80;99.90;;;;;;5046538;28;20061;-69
2023/02/11 06:48:27;;;;;;;29.10;14.75;;;6.80;99.90;;;;;;5047664;28;20036;-69
2023/02/11 06:50:52;;;;;;;38.72;17.05;;;6.80;99.90;;;;;;5044108;28;20037;-69
2023/02/11 06:53:18;;;;;;;40.53;17.80;;;6.80;99.90;;;;;;5040075;28;20021;-70
2023/02/11 06:55:43;;;;;;;36.13;17.15;;;6.80;99.90;;;;;;5040510;28;20029;-70
2023/02/11 06:58:09;;;;;;;34.60;15.77;;;6.80;99.90;;;;;;5036109;28;20397;-69
2023/02/11 07:00:35;;;;;;;38.30;17.17;;;6.80;99.90;;;;;;5032409;28;20507;-70
2023/02/11 07:03:00;;;;;;;34.75;16.27;;;6.80;99.90;;;;;;5036904;28;20029;-69
2023/02/11 07:05:26;;;;;;;36.15;16.67;;;6.80;99.90;;;;;;5044710;28;20450;-70
2023/02/11 07:07:52;;;;;;;43.25;19.65;;;6.80;99.90;;;;;;5033661;28;20030;-70
2023/02/11 07:10:17;;;;;;;42.90;18.80;;;6.80;99.90;;;;;;5033566;28;20112;-70
2023/02/11 07:12:43;;;;;;;44.38;18.92;;;6.80;99.90;;;;;;5032280;28;20076;-69
2023/02/11 07:15:08;;;;;;;44.72;20.50;;;6.80;99.90;;;;;;5039755;28;20033;-70
2023/02/11 07:17:34;;;;;;;38.22;19.33;;;6.90;99.90;;;;;;5031291;28;20110;-70
2023/02/11 07:20:00;;;;;;;46.38;21.42;;;6.90;99.90;;;;;;5034427;28;20049;-70
2023/02/11 07:22:26;;;;;;;43.63;20.88;;;6.90;99.90;;;;;;5039771;28;20076;-70
2023/02/11 07:24:52;;;;;;;36.92;18.42;;;6.90;99.90;;;;;;5039015;28;20452;-70
2023/02/11 07:27:17;;;;;;;44.00;19.00;;;6.90;99.90;;;;;;5039742;28;20116;-70
2023/02/11 07:29:44;;;;;;;44.72;20.70;;;6.90;99.90;;;;;;5035647;28;20108;-70
2023/02/11 07:32:10;;;;;;;52.85;22.73;;;6.90;99.90;;;;;;5034490;28;20025;-70
2023/02/11 07:34:36;;;;;;;55.92;23.60;;;6.90;99.90;;;;;;5042918;28;20036;-69
2023/02/11 07:37:01;;;;;;;51.63;24.45;;;6.90;99.90;;;;;;5042345;28;20469;-70
2023/02/11 07:39:28;;;;;;;40.33;21.13;;;6.90;99.90;;;;;;5046668;28;20067;-70
2023/02/11 07:41:53;;;;;;;54.70;23.48;;;7.00;99.90;;;;;;5035302;28;20036;-70
2023/02/11 07:44:19;;;;;;;42.85;21.38;;;7.00;99.90;;;;;;5036220;28;20456;-70
2023/02/11 07:46:46;;;;;;;47.60;23.73;;;7.00;99.90;;;;;;5038994;28;20042;-70
2023/02/11 07:49:12;;;;;;;55.92;24.05;;;7.00;99.90;;;;;;5043930;28;20123;-70
2023/02/11 07:51:38;;;;;;;50.60;24.20;;;7.00;99.90;;;;;;5042486;28;20022;-70
2023/02/11 07:54:03;;;;;;;50.38;23.45;;;7.10;99.90;;;;;;5040945;28;20026;-70
2023/02/11 07:56:29;;;;;;;56.00;24.85;;;7.10;99.90;;;;;;5044124;28;20083;-70
2023/02/11 07:58:58;;;;;;;51.53;26.15;;;7.10;99.90;;;;;;5034090;28;20091;-70
2023/02/11 08:01:27;;;;;;;53.42;25.08;;;7.10;99.90;;;;;;5045956;28;20039;-70
2023/02/11 08:03:55;;;;;;;52.85;23.90;;;7.10;99.90;;;;;;5035861;28;20020;-70
2023/02/11 08:06:23;;;;;;;56.25;24.48;;;7.10;99.90;;;;;;5045858;28;20057;-71
2023/02/11 08:08:49;;;;;;;47.15;24.60;;;7.10;99.90;;;;;;5036439;28;20021;-71
2023/02/11 08:11:20;;;;;;;58.83;26.35;;;7.10;99.90;;;;;;5039468;28;20108;-70
2023/02/11 08:13:46;;;;;;;55.70;25.70;;;7.20;99.90;;;;;;5035630;28;20393;-70
2023/02/11 08:16:19;;;;;;;60.28;28.08;;;7.20;99.90;;;;;;5039527;28;20022;-70
2023/02/11 08:18:44;;;;;;;51.47;26.25;;;7.20;99.90;;;;;;5033151;28;20029;-72
2023/02/11 08:21:10;;;;;;;63.97;28.63;;;7.20;99.90;;;;;;5045044;28;20092;-70
2023/02/11 08:23:37;;;;;;;56.35;26.85;;;7.20;99.90;;;;;;5040640;28;20047;-70
2023/02/11 08:26:08;;;;;;;56.80;25.98;;;7.20;99.90;;;;;;5030818;28;20038;-70
2023/02/11 08:28:37;;;;;;;63.20;29.05;;;7.20;99.90;;;;;;5038773;28;20064;-70
2023/02/11 08:31:07;;;;;;;72.63;28.77;;;7.20;99.90;;;;;;5040760;28;20025;-70
2023/02/11 08:33:33;;;;;;;60.97;27.95;;;7.20;99.90;;;;;;5037515;28;20033;-70
2023/02/11 08:35:59;;;;;;;64.93;29.38;;;7.20;99.90;;;;;;5045746;28;20037;-71
2023/02/11 08:38:24;;;;;;;62.97;27.38;;;7.20;99.90;;;;;;5036469;28;20053;-71
2023/02/11 08:40:52;;;;;;;79.28;31.50;;;7.20;99.90;;;;;;5037905;28;20039;-70
2023/02/11 08:43:18;;;;;;;70.25;29.80;;;7.20;99.90;;;;;;5040328;28;20032;-70
2023/02/11 08:45:46;;;;;;;69.63;30.35;;;7.30;99.90;;;;;;5037132;28;20053;-70
2023/02/11 08:48:11;;;;;;;74.65;31.85;;;7.30;99.90;;;;;;5047578;28;20053;-70
2023/02/11 08:50:38;;;;;;;72.22;30.30;;;7.20;99.90;;;;;;5038880;28;20523;-71
2023/02/11 08:53:04;;;;;;;77.95;32.35;;;7.20;99.90;;;;;;5042891;28;20111;-70
2023/02/11 08:55:29;;;;;;;71.75;31.92;;;7.20;99.90;;;;;;5039604;28;20108;-70
2023/02/11 08:57:55;;;;;;;65.93;28.52;;;7.30;99.90;;;;;;5039118;28;20060;-70
2023/02/11 09:00:22;;;;;;;63.17;29.23;;;7.30;99.90;;;;;;5034774;28;20112;-70
2023/02/11 09:02:47;;;;;;;71.93;31.10;;;7.30;99.90;;;;;;5037435;28;20026;-71
2023/02/11 09:05:13;;;;;;;75.63;32.42;;;7.30;99.90;;;;;;5047093;28;20061;-70
2023/02/11 09:07:38;;;;;;;70.40;31.73;;;7.40;99.90;;;;;;5050232;28;20445;-70
2023/02/11 09:10:05;;;;;;;76.47;34.08;;;7.40;99.90;;;;;;5047266;28;20073;-71
2023/02/11 09:12:30;;;;;;;77.50;34.28;;;7.40;99.90;;;;;;5031573;28;20033;-70
2023/02/11 09:14:56;;;;;;;75.47;31.33;;;7.50;99.90;;;;;;5035115;28;20487;-70
2023/02/11 09:17:22;;;;;;;75.40;32.72;;;7.50;99.90;;;;;;5039108;28;20029;-70
2023/02/11 09:19:47;;;;;;;73.03;31.45;;;7.60;99.90;;;;;;5034595;28;20049;-71
2023/02/11 09:22:13;;;;;;;64.13;31.65;;;7.60;99.90;;;;;;5034358;28;20059;-71
2023/02/11 09:24:38;;;;;;;64.18;30.52;;;7.60;99.90;;;;;;5032142;28;20033;-71
2023/02/11 09:27:05;;;;;;;70.78;32.70;;;7.70;99.90;;;;;;5031687;28;20083;-71
2023/02/11 09:29:30;;;;;;;61.28;28.25;;;7.70;99.90;;;;;;5035466;28;20029;-70
2023/02/11 09:31:56;;;;;;;76.00;34.42;;;7.70;99.90;;;;;;5031820;28;20037;-71
2023/02/11 09:34:21;;;;;;;63.33;31.23;;;7.70;99.90;;;;;;5034973;28;20029;-70
2023/02/11 09:36:47;;;;;;;80.68;34.60;;;7.80;99.90;;;;;;5034391;28;20030;-71
2023/02/11 09:39:16;;;;;;;64.32;32.53;;;7.80;99.90;;;;;;5027409;28;20151;-71
2023/02/11 09:42:01;;;;;;;59.83;31.35;;;7.90;99.90;;;;;;5029981;28;20025;-71
2023/02/11 09:44:31;;;;;;;61.95;32.30;;;7.90;99.90;;;;;;5032765;28;20144;-72
2023/02/11 09:47:03;;;;;;;64.03;31.30;;;8.00;99.90;;;;;;5032236;28;20481;-70
2023/02/11 09:49:48;;;;;;;66.75;32.88;;;8.10;99.90;;;;;;5050984;28;20049;-71
2023/02/11 09:52:44;;;;;;;50.20;26.98;;;8.10;99.90;;;;;;5052987;28;20025;-71
2023/02/11 09:55:41;;;;;;;62.47;30.83;;;8.10;99.90;;;;;;5043437;28;20107;-71
2023/02/11 09:58:21;;;;;;;63.10;32.05;;;8.20;99.90;;;;;;5038567;28;20013;-71
2023/02/11 10:01:13;;;;;;;59.67;30.10;;;8.20;99.90;;;;;;5031819;28;20027;-71
2023/02/11 10:03:45;;;;;;;66.07;32.17;;;8.30;99.90;;;;;;5035734;28;20029;-71
2023/02/11 10:06:27;;;;;;;56.30;28.77;;;8.30;99.90;;;;;;5033514;28;20033;-71
2023/02/11 10:09:16;;;;;;;56.93;28.87;;;8.30;99.90;;;;;;5034025;28;20117;-71
2023/02/11 10:12:00;;;;;;;60.10;30.27;;;8.40;99.90;;;;;;5039645;28;20043;-71
2023/02/11 10:15:01;;;;;;;53.22;26.55;;;8.50;99.90;;;;;;5040135;28;20496;-71
2023/02/11 10:18:00;;;;;;;48.25;25.25;;;8.50;99.90;;;;;;5039001;28;20028;-70
2023/02/11 10:21:03;;;;;;;50.55;25.45;;;8.60;99.90;;;;;;5042408;28;20027;-70
2023/02/11 10:23:35;;;;;;;49.88;25.30;;;8.60;99.90;;;;;;5035089;28;20035;-72
2023/02/11 10:26:01;;;;;;;47.70;25.92;;;8.70;99.90;;;;;;5030652;28;20124;-70
2023/02/11 10:28:32;;;;;;;49.35;24.33;;;8.60;99.90;;;;;;5033279;28;20025;-70
2023/02/11 10:31:16;;;;;;;52.97;26.40;;;8.70;99.90;;;;;;5031340;28;20493;-70
2023/02/11 10:34:05;;;;;;;42.58;22.75;;;8.80;99.90;;;;;;5046649;28;20049;-70
2023/02/11 10:36:36;;;;;;;45.53;23.70;;;8.80;99.90;;;;;;5030340;28;20485;-71
2023/02/11 10:39:21;;;;;;;41.40;22.15;;;8.80;99.90;;;;;;5035905;28;20025;-71
2023/02/11 10:41:52;;;;;;;40.72;21.65;;;8.90;99.90;;;;;;5047945;28;20126;-71
2023/02/11 10:44:37;;;;;;;41.35;21.48;;;8.90;99.90;;;;;;5033428;28;20025;-70
2023/02/11 10:47:20;;;;;;;37.30;21.48;;;8.90;99.90;;;;;;5035385;28;20041;-69
2023/02/11 10:49:46;;;;;;;43.30;21.88;;;9.00;99.90;;;;;;5034878;28;20036;-70
2023/02/11 10:52:22;;;;;;;40.75;21.95;;;9.00;99.90;;;;;;5031868;28;20036;-71
2023/02/11 10:55:15;;;;;;;40.90;21.50;;;9.10;99.90;;;;;;5028968;28;20029;-71
2023/02/11 10:57:52;;;;;;;38.13;22.10;;;9.10;99.90;;;;;;5031983;28;20030;-70
2023/02/11 11:00:21;;;;;;;38.47;20.60;;;9.30;99.90;;;;;;5033163;28;20048;-71
2023/02/11 11:02:55;;;;;;;36.45;20.90;;;9.30;99.90;;;;;;5039644;28;20036;-71
2023/02/11 11:05:31;;;;;;;39.50;22.17;;;9.40;99.90;;;;;;5032288;28;20120;-70
2023/02/11 11:07:59;;;;;;;36.25;22.65;;;9.50;99.90;;;;;;5038448;28;20043;-70
2023/02/11 11:10:27;;;;;;;39.80;22.48;;;9.50;99.90;;;;;;5049680;28;20036;-70
2023/02/11 11:12:53;;;;;;;43.75;22.20;;;9.60;99.90;;;;;;5030914;28;20026;-70
2023/02/11 11:15:21;;;;;;;41.10;22.25;;;9.60;99.90;;;;;;5031327;28;20128;-70
2023/02/11 11:18:09;;;;;;;48.47;22.35;;;9.70;99.90;;;;;;5031302;28;20033;-71
2023/02/11 11:20:35;;;;;;;34.90;19.17;;;9.80;99.90;;;;;;5034826;28;20437;-70
2023/02/11 11:23:21;;;;;;;41.60;22.30;;;9.80;99.90;;;;;;5036593;28;20039;-71
2023/02/11 11:26:06;;;;;;;36.55;20.40;;;9.80;99.90;;;;;;5034363;28;20087;-70
2023/02/11 11:28:38;;;;;;;35.22;19.08;;;9.80;99.90;;;;;;5040312;28;20029;-71
2023/02/11 11:31:04;;;;;;;34.70;19.55;;;9.80;99.90;;;;;;5041559;28;20030;-71
2023/02/11 11:33:34;;;;;;;30.17;18.52;;;9.80;99.90;;;;;;5032782;28;20037;-70
2023/02/11 11:36:08;;;;;;;36.25;20.23;;;9.70;99.90;;;;;;5031320;28;20136;-71
2023/02/11 11:38:41;;;;;;;35.30;19.35;;;9.60;99.90;;;;;;5034354;28;20084;-71
2023/02/11 11:41:29;;;;;;;35.97;19.55;;;9.60;99.90;;;;;;5029783;28;20021;-71
2023/02/11 11:44:16;;;;;;;37.60;19.77;;;9.60;99.90;;;;;;5036664;28;20040;-71
2023/02/11 11:46:43;;;;;;;39.97;20.35;;;9.60;99.90;;;;;;5029830;28;20447;-71
2023/02/11 11:49:28;;;;;;;39.22;20.83;;;9.60;99.90;;;;;;5032867;28;21275;-70
2023/02/11 11:52:07;;;;;;;31.38;18.63;;;9.70;99.90;;;;;;5038201;28;20029;-70
2023/02/11 11:54:33;;;;;;;37.40;20.10;;;9.80;99.90;;;;;;5031903;28;20167;-70
2023/02/11 11:57:04;;;;;;;35.00;19.58;;;9.90;99.90;;;;;;5029168;28;20021;-70
2023/02/11 11:59:30;;;;;;;31.25;17.95;;;9.90;99.90;;;;;;5031251;28;20068;-71
2023/02/11 12:02:39;;;;;;;38.72;19.08;;;9.90;99.90;;;;;;5036374;28;20026;-71
2023/02/11 12:05:31;;;;;;;30.85;17.08;;;9.80;99.90;;;;;;5031132;28;20069;-70
2023/02/11 12:08:16;;;;;;;33.15;17.38;;;9.80;99.90;;;;;;5030061;28;20041;-70
2023/02/11 12:11:24;;;;;;;32.10;17.98;;;9.80;99.90;;;;;;5034956;28;20355;-70
2023/02/11 12:14:14;;;;;;;34.20;17.63;;;9.80;99.90;;;;;;5034894;28;20036;-71
2023/02/11 12:16:56;;;;;;;33.05;17.98;;;9.80;99.90;;;;;;5033769;28;20029;-70
2023/02/11 12:19:40;;;;;;;30.42;17.38;;;9.80;99.90;;;;;;5046044;28;20029;-70
2023/02/11 12:22:17;;;;;;;34.95;18.00;;;9.80;99.90;;;;;;5041722;28;20028;-70
2023/02/11 12:24:58;;;;;;;29.90;17.38;;;9.90;99.90;;;;;;5050406;28;20104;-71
2023/02/11 12:27:46;;;;;;;31.75;17.35;;;9.90;99.90;;;;;;5034032;28;20048;-70
2023/02/11 12:30:20;;;;;;;32.08;17.42;;;10.00;99.90;;;;;;5035003;28;20025;-70
2023/02/11 12:33:11;;;;;;;28.20;16.60;;;9.90;99.90;;;;;;5041406;28;20032;-70
2023/02/11 12:36:28;;;;;;;28.80;16.48;;;9.90;99.90;;;;;;5036034;28;20057;-71
2023/02/11 12:39:16;;;;;;;30.48;16.70;;;9.90;99.90;;;;;;4987746;28;20102;-71
2023/02/11 12:44:54;;;;;;;27.17;15.25;;;9.80;99.90;;;;;;5034183;28;20048;-71
2023/02/11 12:47:38;;;;;;;28.85;16.40;;;9.80;99.90;;;;;;5034762;28;20027;-71
2023/02/11 12:50:07;;;;;;;27.38;15.13;;;9.70;99.90;;;;;;5040042;28;20036;-70
2023/02/11 12:53:15;;;;;;;24.55;15.45;;;9.80;99.90;;;;;;5039834;28;20480;-70
2023/02/11 12:55:44;;;;;;;30.42;16.25;;;9.90;99.90;;;;;;5031758;28;20037;-70
2023/02/11 12:58:20;;;;;;;28.30;16.15;;;10.00;99.90;;;;;;5045398;28;20056;-71
2023/02/11 13:00:55;;;;;;;28.75;17.02;;;10.20;99.90;;;;;;5033639;28;20504;-71
2023/02/11 13:03:42;;;;;;;26.58;15.55;;;10.30;99.90;;;;;;5041366;28;20036;-71
2023/02/11 13:06:11;;;;;;;25.35;14.75;;;10.40;99.90;;;;;;5036406;28;20057;-70
2023/02/11 13:08:47;;;;;;;22.35;13.95;;;10.40;99.90;;;;;;5042266;28;20029;-70
2023/02/11 13:11:26;;;;;;;27.90;15.90;;;10.40;99.90;;;;;;5041780;28;20068;-70